sensor_id;sensor_type;location;lat;lon;timestamp;P1;durP1;ratioP1;P2;durP2;ratioP2
58472;SDS011;44775;51.564;5.460;2023-07-20T00:02:11;13.63;;;7.25;;
58472;SDS011;44775;51.564;5.460;2023-07-20T00:04:37;15.57;;;7.55;;
58472;SDS011;44775;51.564;5.460;2023-07-20T00:07:03;13.25;;;7.75;;
58472;SDS011;44775;51.564;5.460;2023-07-20T00:09:28;13.57;;;7.40;;
58472;SDS011;44775;51.564;5.460;2023-07-20T00:11:54;13.30;;;7.40;;
58472;SDS011;44775;51.564;5.460;2023-07-20T00:14:20;13.30;;;7.95;;
58472;SDS011;44775;51.564;5.460;2023-07-20T00:16:46;11.15;;;7.28;;
58472;SDS011;44775;51.564;5.460;2023-07-20T00:19:12;13.93;;;7.22;;
58472;SDS011;44775;51.564;5.460;2023-07-20T00:21:38;20.88;;;7.53;;
58472;SDS011;44775;51.564;5.460;2023-07-20T00:24:05;16.67;;;7.80;;
58472;SDS011;44775;51.564;5.460;2023-07-20T00:26:31;12.73;;;7.43;;
58472;SDS011;44775;51.564;5.460;2023-07-20T00:28:56;13.07;;;7.15;;
58472;SDS011;44775;51.564;5.460;2023-07-20T00:31:22;13.60;;;7.63;;
58472;SDS011;44775;51.564;5.460;2023-07-20T00:33:47;14.35;;;7.90;;
58472;SDS011;44775;51.564;5.460;2023-07-20T00:36:13;15.88;;;7.53;;
58472;SDS011;44775;51.564;5.460;2023-07-20T00:38:38;14.25;;;7.63;;
58472;SDS011;44775;51.564;5.460;2023-07-20T00:41:04;11.05;;;5.95;;
58472;SDS011;44775;51.564;5.460;2023-07-20T00:43:29;10.30;;;4.88;;
58472;SDS011;44775;51.564;5.460;2023-07-20T00:45:55;15.05;;;7.22;;
58472;SDS011;44775;51.564;5.460;2023-07-20T00:48:20;13.65;;;6.47;;
58472;SDS011;44775;51.564;5.460;2023-07-20T00:50:46;16.65;;;7.82;;
58472;SDS011;44775;51.564;5.460;2023-07-20T00:53:13;17.13;;;7.75;;
58472;SDS011;44775;51.564;5.460;2023-07-20T00:55:39;13.30;;;7.40;;
58472;SDS011;44775;51.564;5.460;2023-07-20T00:58:04;15.48;;;8.02;;
58472;SDS011;44775;51.564;5.460;2023-07-20T01:00:30;16.65;;;7.72;;
58472;SDS011;44775;51.564;5.460;2023-07-20T01:02:55;16.52;;;8.25;;
58472;SDS011;44775;51.564;5.460;2023-07-20T01:05:20;13.38;;;7.95;;
58472;SDS011;44775;51.564;5.460;2023-07-20T01:07:53;14.60;;;7.80;;
58472;SDS011;44775;51.564;5.460;2023-07-20T01:13:20;13.63;;;8.20;;
58472;SDS011;44775;51.564;5.460;2023-07-20T01:15:50;18.02;;;8.65;;
58472;SDS011;44775;51.564;5.460;2023-07-20T01:18:22;16.65;;;9.05;;
58472;SDS011;44775;51.564;5.460;2023-07-20T01:20:47;17.77;;;8.88;;
58472;SDS011;44775;51.564;5.460;2023-07-20T01:31:27;17.45;;;9.57;;
58472;SDS011;44775;51.564;5.460;2023-07-20T01:33:56;17.05;;;10.18;;
58472;SDS011;44775;51.564;5.460;2023-07-20T01:36:23;17.97;;;9.70;;
58472;SDS011;44775;51.564;5.460;2023-07-20T01:38:51;19.10;;;10.00;;
58472;SDS011;44775;51.564;5.460;2023-07-20T01:41:17;20.25;;;9.82;;
58472;SDS011;44775;51.564;5.460;2023-07-20T01:43:43;12.52;;;7.80;;
58472;SDS011;44775;51.564;5.460;2023-07-20T01:46:09;18.77;;;10.65;;
58472;SDS011;44775;51.564;5.460;2023-07-20T01:48:34;17.15;;;8.25;;
58472;SDS011;44775;51.564;5.460;2023-07-20T01:50:59;10.70;;;7.03;;
58472;SDS011;44775;51.564;5.460;2023-07-20T01:53:25;20.20;;;10.13;;
58472;SDS011;44775;51.564;5.460;2023-07-20T01:55:52;14.38;;;9.18;;
58472;SDS011;44775;51.564;5.460;2023-07-20T01:58:18;16.95;;;9.98;;
58472;SDS011;44775;51.564;5.460;2023-07-20T02:00:43;12.32;;;7.45;;
58472;SDS011;44775;51.564;5.460;2023-07-20T02:03:09;17.35;;;10.38;;
58472;SDS011;44775;51.564;5.460;2023-07-20T02:05:34;14.45;;;9.45;;
58472;SDS011;44775;51.564;5.460;2023-07-20T02:07:59;6.97;;;5.53;;
58472;SDS011;44775;51.564;5.460;2023-07-20T02:10:24;18.13;;;11.02;;
58472;SDS011;44775;51.564;5.460;2023-07-20T02:12:50;13.93;;;9.13;;
58472;SDS011;44775;51.564;5.460;2023-07-20T02:15:15;14.82;;;10.65;;
58472;SDS011;44775;51.564;5.460;2023-07-20T02:17:43;9.52;;;5.70;;
58472;SDS011;44775;51.564;5.460;2023-07-20T02:20:09;8.82;;;6.43;;
58472;SDS011;44775;51.564;5.460;2023-07-20T02:25:04;9.77;;;7.43;;
58472;SDS011;44775;51.564;5.460;2023-07-20T02:27:30;15.90;;;12.10;;
58472;SDS011;44775;51.564;5.460;2023-07-20T02:29:56;12.23;;;8.45;;
58472;SDS011;44775;51.564;5.460;2023-07-20T02:32:21;9.13;;;6.63;;
58472;SDS011;44775;51.564;5.460;2023-07-20T02:34:47;14.52;;;10.60;;
58472;SDS011;44775;51.564;5.460;2023-07-20T02:37:12;10.60;;;7.45;;
58472;SDS011;44775;51.564;5.460;2023-07-20T02:39:38;16.65;;;12.30;;
58472;SDS011;44775;51.564;5.460;2023-07-20T02:42:03;11.52;;;9.15;;
58472;SDS011;44775;51.564;5.460;2023-07-20T02:44:29;11.82;;;8.85;;
58472;SDS011;44775;51.564;5.460;2023-07-20T02:46:55;18.35;;;14.07;;
58472;SDS011;44775;51.564;5.460;2023-07-20T02:49:20;12.48;;;8.90;;
58472;SDS011;44775;51.564;5.460;2023-07-20T02:51:46;18.35;;;13.05;;
58472;SDS011;44775;51.564;5.460;2023-07-20T02:54:11;20.08;;;14.70;;
58472;SDS011;44775;51.564;5.460;2023-07-20T02:56:37;21.75;;;13.98;;
58472;SDS011;44775;51.564;5.460;2023-07-20T02:59:02;17.95;;;12.98;;
58472;SDS011;44775;51.564;5.460;2023-07-20T03:01:29;15.85;;;12.27;;
58472;SDS011;44775;51.564;5.460;2023-07-20T03:03:54;11.10;;;8.48;;
58472;SDS011;44775;51.564;5.460;2023-07-20T03:06:22;11.45;;;6.60;;
58472;SDS011;44775;51.564;5.460;2023-07-20T03:08:47;16.08;;;12.25;;
58472;SDS011;44775;51.564;5.460;2023-07-20T03:11:16;12.93;;;10.38;;
58472;SDS011;44775;51.564;5.460;2023-07-20T03:13:42;11.77;;;7.57;;
58472;SDS011;44775;51.564;5.460;2023-07-20T03:16:11;7.45;;;5.82;;
58472;SDS011;44775;51.564;5.460;2023-07-20T03:18:40;5.45;;;4.63;;
58472;SDS011;44775;51.564;5.460;2023-07-20T03:21:07;10.25;;;8.48;;
58472;SDS011;44775;51.564;5.460;2023-07-20T03:23:33;9.48;;;7.13;;
58472;SDS011;44775;51.564;5.460;2023-07-20T03:25:58;9.95;;;7.65;;
58472;SDS011;44775;51.564;5.460;2023-07-20T03:28:24;9.95;;;7.50;;
58472;SDS011;44775;51.564;5.460;2023-07-20T03:30:53;7.47;;;5.40;;
58472;SDS011;44775;51.564;5.460;2023-07-20T03:33:20;5.82;;;5.18;;
58472;SDS011;44775;51.564;5.460;2023-07-20T03:35:50;6.95;;;5.47;;
58472;SDS011;44775;51.564;5.460;2023-07-20T03:38:15;11.20;;;8.20;;
58472;SDS011;44775;51.564;5.460;2023-07-20T03:40:48;4.70;;;4.20;;
58472;SDS011;44775;51.564;5.460;2023-07-20T03:43:18;8.23;;;5.57;;
58472;SDS011;44775;51.564;5.460;2023-07-20T03:45:43;15.95;;;11.15;;
58472;SDS011;44775;51.564;5.460;2023-07-20T03:48:09;17.60;;;12.70;;
58472;SDS011;44775;51.564;5.460;2023-07-20T03:50:34;18.40;;;13.20;;
58472;SDS011;44775;51.564;5.460;2023-07-20T03:53:00;11.32;;;8.80;;
58472;SDS011;44775;51.564;5.460;2023-07-20T03:55:25;9.45;;;6.60;;
58472;SDS011;44775;51.564;5.460;2023-07-20T03:57:50;15.00;;;12.40;;
58472;SDS011;44775;51.564;5.460;2023-07-20T04:00:16;18.42;;;12.63;;
58472;SDS011;44775;51.564;5.460;2023-07-20T04:02:42;15.93;;;12.38;;
58472;SDS011;44775;51.564;5.460;2023-07-20T04:05:08;16.35;;;12.57;;
58472;SDS011;44775;51.564;5.460;2023-07-20T04:07:33;11.88;;;9.40;;
58472;SDS011;44775;51.564;5.460;2023-07-20T04:09:59;11.20;;;7.95;;
58472;SDS011;44775;51.564;5.460;2023-07-20T04:12:24;8.95;;;6.88;;
58472;SDS011;44775;51.564;5.460;2023-07-20T04:14:49;14.70;;;11.23;;
58472;SDS011;44775;51.564;5.460;2023-07-20T04:17:15;12.52;;;9.75;;
58472;SDS011;44775;51.564;5.460;2023-07-20T04:19:40;14.73;;;11.52;;
58472;SDS011;44775;51.564;5.460;2023-07-20T04:22:05;16.40;;;11.27;;
58472;SDS011;44775;51.564;5.460;2023-07-20T04:24:31;15.95;;;11.60;;
58472;SDS011;44775;51.564;5.460;2023-07-20T04:26:56;13.60;;;11.23;;
58472;SDS011;44775;51.564;5.460;2023-07-20T04:29:21;14.50;;;11.27;;
58472;SDS011;44775;51.564;5.460;2023-07-20T04:31:47;16.00;;;11.98;;
58472;SDS011;44775;51.564;5.460;2023-07-20T04:34:12;15.45;;;11.23;;
58472;SDS011;44775;51.564;5.460;2023-07-20T04:36:37;16.67;;;13.00;;
58472;SDS011;44775;51.564;5.460;2023-07-20T04:39:03;12.65;;;10.35;;
58472;SDS011;44775;51.564;5.460;2023-07-20T04:41:29;18.67;;;13.80;;
58472;SDS011;44775;51.564;5.460;2023-07-20T04:43:55;18.45;;;13.57;;
58472;SDS011;44775;51.564;5.460;2023-07-20T04:46:20;20.88;;;13.52;;
58472;SDS011;44775;51.564;5.460;2023-07-20T04:48:46;19.08;;;13.13;;
58472;SDS011;44775;51.564;5.460;2023-07-20T04:51:12;16.67;;;12.60;;
58472;SDS011;44775;51.564;5.460;2023-07-20T04:53:38;16.63;;;13.35;;
58472;SDS011;44775;51.564;5.460;2023-07-20T04:56:03;18.88;;;13.32;;
58472;SDS011;44775;51.564;5.460;2023-07-20T04:58:29;15.75;;;11.65;;
58472;SDS011;44775;51.564;5.460;2023-07-20T05:00:54;12.18;;;9.45;;
58472;SDS011;44775;51.564;5.460;2023-07-20T05:03:19;17.35;;;12.50;;
58472;SDS011;44775;51.564;5.460;2023-07-20T05:05:46;17.73;;;13.27;;
58472;SDS011;44775;51.564;5.460;2023-07-20T05:08:13;17.33;;;14.02;;
58472;SDS011;44775;51.564;5.460;2023-07-20T05:10:38;20.27;;;14.50;;
58472;SDS011;44775;51.564;5.460;2023-07-20T05:13:03;20.67;;;15.10;;
58472;SDS011;44775;51.564;5.460;2023-07-20T05:15:29;20.45;;;14.52;;
58472;SDS011;44775;51.564;5.460;2023-07-20T05:17:54;21.27;;;15.52;;
58472;SDS011;44775;51.564;5.460;2023-07-20T05:20:19;19.88;;;16.05;;
58472;SDS011;44775;51.564;5.460;2023-07-20T05:22:45;21.67;;;16.27;;
58472;SDS011;44775;51.564;5.460;2023-07-20T05:25:11;18.42;;;14.48;;
58472;SDS011;44775;51.564;5.460;2023-07-20T05:27:37;11.73;;;8.52;;
58472;SDS011;44775;51.564;5.460;2023-07-20T05:30:03;8.38;;;7.07;;
58472;SDS011;44775;51.564;5.460;2023-07-20T05:32:30;13.70;;;10.10;;
58472;SDS011;44775;51.564;5.460;2023-07-20T05:34:55;20.02;;;14.25;;
58472;SDS011;44775;51.564;5.460;2023-07-20T05:37:21;19.83;;;14.27;;
58472;SDS011;44775;51.564;5.460;2023-07-20T05:39:46;17.92;;;13.55;;
58472;SDS011;44775;51.564;5.460;2023-07-20T05:42:12;12.00;;;9.82;;
58472;SDS011;44775;51.564;5.460;2023-07-20T05:44:37;10.80;;;8.98;;
58472;SDS011;44775;51.564;5.460;2023-07-20T05:47:03;14.80;;;12.10;;
58472;SDS011;44775;51.564;5.460;2023-07-20T05:49:29;13.82;;;11.40;;
58472;SDS011;44775;51.564;5.460;2023-07-20T05:51:57;11.50;;;9.27;;
58472;SDS011;44775;51.564;5.460;2023-07-20T05:54:25;5.25;;;4.20;;
58472;SDS011;44775;51.564;5.460;2023-07-20T05:59:17;4.47;;;3.90;;
58472;SDS011;44775;51.564;5.460;2023-07-20T06:01:44;11.13;;;8.18;;
58472;SDS011;44775;51.564;5.460;2023-07-20T06:04:09;9.55;;;8.07;;
58472;SDS011;44775;51.564;5.460;2023-07-20T06:06:35;9.90;;;8.00;;
58472;SDS011;44775;51.564;5.460;2023-07-20T06:09:00;3.88;;;3.47;;
58472;SDS011;44775;51.564;5.460;2023-07-20T06:11:30;5.50;;;3.78;;
58472;SDS011;44775;51.564;5.460;2023-07-20T06:13:56;7.40;;;6.15;;
58472;SDS011;44775;51.564;5.460;2023-07-20T06:16:22;3.10;;;2.80;;
58472;SDS011;44775;51.564;5.460;2023-07-20T06:18:47;3.38;;;2.65;;
58472;SDS011;44775;51.564;5.460;2023-07-20T06:21:12;4.88;;;3.70;;
58472;SDS011;44775;51.564;5.460;2023-07-20T06:23:38;8.98;;;7.45;;
58472;SDS011;44775;51.564;5.460;2023-07-20T06:26:05;3.40;;;3.00;;
58472;SDS011;44775;51.564;5.460;2023-07-20T06:28:31;3.92;;;2.97;;
58472;SDS011;44775;51.564;5.460;2023-07-20T06:31:00;7.35;;;6.63;;
58472;SDS011;44775;51.564;5.460;2023-07-20T06:33:26;4.07;;;3.65;;
58472;SDS011;44775;51.564;5.460;2023-07-20T06:35:51;3.92;;;3.28;;
58472;SDS011;44775;51.564;5.460;2023-07-20T06:38:18;6.85;;;5.38;;
58472;SDS011;44775;51.564;5.460;2023-07-20T06:40:45;5.75;;;5.03;;
58472;SDS011;44775;51.564;5.460;2023-07-20T06:43:11;3.58;;;3.00;;
58472;SDS011;44775;51.564;5.460;2023-07-20T06:45:36;4.07;;;3.45;;
58472;SDS011;44775;51.564;5.460;2023-07-20T06:48:01;3.45;;;3.15;;
58472;SDS011;44775;51.564;5.460;2023-07-20T06:50:28;2.30;;;2.08;;
58472;SDS011;44775;51.564;5.460;2023-07-20T06:52:53;5.57;;;4.70;;
58472;SDS011;44775;51.564;5.460;2023-07-20T06:55:19;4.40;;;4.00;;
58472;SDS011;44775;51.564;5.460;2023-07-20T06:57:44;6.35;;;4.13;;
58472;SDS011;44775;51.564;5.460;2023-07-20T07:00:09;2.10;;;1.90;;
58472;SDS011;44775;51.564;5.460;2023-07-20T07:02:35;2.63;;;2.08;;
58472;SDS011;44775;51.564;5.460;2023-07-20T07:05:01;1.73;;;1.63;;
58472;SDS011;44775;51.564;5.460;2023-07-20T07:07:26;1.55;;;1.45;;
58472;SDS011;44775;51.564;5.460;2023-07-20T07:09:52;2.15;;;1.83;;
58472;SDS011;44775;51.564;5.460;2023-07-20T07:12:17;1.30;;;1.20;;
58472;SDS011;44775;51.564;5.460;2023-07-20T07:14:42;3.60;;;2.67;;
58472;SDS011;44775;51.564;5.460;2023-07-20T07:17:08;2.97;;;2.63;;
58472;SDS011;44775;51.564;5.460;2023-07-20T07:19:33;2.65;;;2.45;;
58472;SDS011;44775;51.564;5.460;2023-07-20T07:21:59;2.03;;;1.85;;
58472;SDS011;44775;51.564;5.460;2023-07-20T07:24:24;6.57;;;2.25;;
58472;SDS011;44775;51.564;5.460;2023-07-20T07:26:49;2.28;;;2.08;;
58472;SDS011;44775;51.564;5.460;2023-07-20T07:29:14;1.58;;;1.30;;
58472;SDS011;44775;51.564;5.460;2023-07-20T07:31:40;3.60;;;2.00;;
58472;SDS011;44775;51.564;5.460;2023-07-20T07:34:05;5.10;;;4.55;;
58472;SDS011;44775;51.564;5.460;2023-07-20T07:36:31;2.72;;;1.40;;
58472;SDS011;44775;51.564;5.460;2023-07-20T07:38:57;1.50;;;1.25;;
58472;SDS011;44775;51.564;5.460;2023-07-20T07:41:22;4.50;;;3.13;;
58472;SDS011;44775;51.564;5.460;2023-07-20T07:43:48;5.10;;;4.00;;
58472;SDS011;44775;51.564;5.460;2023-07-20T07:46:13;3.08;;;2.10;;
58472;SDS011;44775;51.564;5.460;2023-07-20T07:48:39;4.40;;;2.75;;
58472;SDS011;44775;51.564;5.460;2023-07-20T07:51:04;2.17;;;1.48;;
58472;SDS011;44775;51.564;5.460;2023-07-20T07:53:30;3.67;;;2.95;;
58472;SDS011;44775;51.564;5.460;2023-07-20T07:55:55;5.90;;;4.00;;
58472;SDS011;44775;51.564;5.460;2023-07-20T07:58:20;8.77;;;4.20;;
58472;SDS011;44775;51.564;5.460;2023-07-20T08:00:46;3.78;;;2.53;;
58472;SDS011;44775;51.564;5.460;2023-07-20T08:03:13;2.00;;;1.75;;
58472;SDS011;44775;51.564;5.460;2023-07-20T08:05:38;2.22;;;1.90;;
58472;SDS011;44775;51.564;5.460;2023-07-20T08:08:03;2.08;;;1.30;;
58472;SDS011;44775;51.564;5.460;2023-07-20T08:10:29;1.65;;;1.15;;
58472;SDS011;44775;51.564;5.460;2023-07-20T08:12:55;1.67;;;0.80;;
58472;SDS011;44775;51.564;5.460;2023-07-20T08:15:20;2.17;;;0.88;;
58472;SDS011;44775;51.564;5.460;2023-07-20T08:17:45;3.70;;;1.35;;
58472;SDS011;44775;51.564;5.460;2023-07-20T08:20:12;1.42;;;1.33;;
58472;SDS011;44775;51.564;5.460;2023-07-20T08:22:38;2.15;;;1.95;;
58472;SDS011;44775;51.564;5.460;2023-07-20T08:25:05;3.17;;;2.30;;
58472;SDS011;44775;51.564;5.460;2023-07-20T08:27:31;3.97;;;2.25;;
58472;SDS011;44775;51.564;5.460;2023-07-20T08:29:56;2.42;;;2.20;;
58472;SDS011;44775;51.564;5.460;2023-07-20T08:32:21;1.73;;;1.25;;
58472;SDS011;44775;51.564;5.460;2023-07-20T08:34:47;3.47;;;1.33;;
58472;SDS011;44775;51.564;5.460;2023-07-20T08:37:12;2.63;;;1.60;;
58472;SDS011;44775;51.564;5.460;2023-07-20T08:39:37;3.45;;;1.98;;
58472;SDS011;44775;51.564;5.460;2023-07-20T08:42:03;1.33;;;1.15;;
58472;SDS011;44775;51.564;5.460;2023-07-20T08:44:32;2.35;;;1.10;;
58472;SDS011;44775;51.564;5.460;2023-07-20T08:46:59;2.55;;;1.90;;
58472;SDS011;44775;51.564;5.460;2023-07-20T08:49:27;3.38;;;1.77;;
58472;SDS011;44775;51.564;5.460;2023-07-20T08:51:53;2.28;;;1.70;;
58472;SDS011;44775;51.564;5.460;2023-07-20T08:54:20;2.05;;;1.38;;
58472;SDS011;44775;51.564;5.460;2023-07-20T08:56:45;2.40;;;1.80;;
58472;SDS011;44775;51.564;5.460;2023-07-20T08:59:12;1.73;;;1.52;;
58472;SDS011;44775;51.564;5.460;2023-07-20T09:01:41;2.67;;;2.05;;
58472;SDS011;44775;51.564;5.460;2023-07-20T09:04:08;1.90;;;1.30;;
58472;SDS011;44775;51.564;5.460;2023-07-20T09:06:34;2.22;;;1.25;;
58472;SDS011;44775;51.564;5.460;2023-07-20T09:09:00;2.03;;;1.00;;
58472;SDS011;44775;51.564;5.460;2023-07-20T09:11:25;2.42;;;0.85;;
58472;SDS011;44775;51.564;5.460;2023-07-20T09:14:06;1.30;;;0.70;;
58472;SDS011;44775;51.564;5.460;2023-07-20T09:17:06;2.20;;;0.85;;
58472;SDS011;44775;51.564;5.460;2023-07-20T09:19:25;1.85;;;1.10;;
58472;SDS011;44775;51.564;5.460;2023-07-20T09:21:51;1.58;;;1.17;;
58472;SDS011;44775;51.564;5.460;2023-07-20T09:24:18;1.48;;;0.90;;
58472;SDS011;44775;51.564;5.460;2023-07-20T09:26:46;3.35;;;0.90;;
58472;SDS011;44775;51.564;5.460;2023-07-20T09:29:19;2.65;;;1.08;;
58472;SDS011;44775;51.564;5.460;2023-07-20T09:31:58;1.10;;;0.70;;
58472;SDS011;44775;51.564;5.460;2023-07-20T09:34:29;2.92;;;0.80;;
58472;SDS011;44775;51.564;5.460;2023-07-20T09:36:58;2.53;;;1.85;;
58472;SDS011;44775;51.564;5.460;2023-07-20T09:39:24;3.92;;;1.52;;
58472;SDS011;44775;51.564;5.460;2023-07-20T09:41:50;3.78;;;1.55;;
58472;SDS011;44775;51.564;5.460;2023-07-20T09:44:16;5.15;;;1.13;;
58472;SDS011;44775;51.564;5.460;2023-07-20T09:46:42;1.80;;;1.63;;
58472;SDS011;44775;51.564;5.460;2023-07-20T09:49:09;2.90;;;1.00;;
58472;SDS011;44775;51.564;5.460;2023-07-20T09:51:34;1.85;;;0.90;;
58472;SDS011;44775;51.564;5.460;2023-07-20T09:54:01;2.10;;;0.90;;
58472;SDS011;44775;51.564;5.460;2023-07-20T09:56:28;1.98;;;0.93;;
58472;SDS011;44775;51.564;5.460;2023-07-20T09:58:55;3.10;;;1.10;;
58472;SDS011;44775;51.564;5.460;2023-07-20T10:01:21;1.23;;;0.90;;
58472;SDS011;44775;51.564;5.460;2023-07-20T10:03:47;2.75;;;0.80;;
58472;SDS011;44775;51.564;5.460;2023-07-20T10:06:20;2.35;;;0.82;;
58472;SDS011;44775;51.564;5.460;2023-07-20T10:08:49;2.22;;;0.73;;
58472;SDS011;44775;51.564;5.460;2023-07-20T10:11:18;1.15;;;0.70;;
58472;SDS011;44775;51.564;5.460;2023-07-20T10:13:46;1.88;;;0.75;;
58472;SDS011;44775;51.564;5.460;2023-07-20T10:16:17;2.58;;;0.95;;
58472;SDS011;44775;51.564;5.460;2023-07-20T10:21:24;1.85;;;1.00;;
58472;SDS011;44775;51.564;5.460;2023-07-20T10:23:50;1.27;;;0.90;;
58472;SDS011;44775;51.564;5.460;2023-07-20T10:26:16;1.67;;;1.10;;
58472;SDS011;44775;51.564;5.460;2023-07-20T10:28:41;2.35;;;0.75;;
58472;SDS011;44775;51.564;5.460;2023-07-20T10:31:08;1.42;;;0.60;;
58472;SDS011;44775;51.564;5.460;2023-07-20T10:33:34;1.10;;;0.60;;
58472;SDS011;44775;51.564;5.460;2023-07-20T10:36:01;1.60;;;0.70;;
58472;SDS011;44775;51.564;5.460;2023-07-20T10:38:38;1.77;;;0.60;;
58472;SDS011;44775;51.564;5.460;2023-07-20T10:41:16;1.02;;;0.50;;
58472;SDS011;44775;51.564;5.460;2023-07-20T10:43:45;1.35;;;0.50;;
58472;SDS011;44775;51.564;5.460;2023-07-20T10:46:11;0.82;;;0.60;;
58472;SDS011;44775;51.564;5.460;2023-07-20T10:51:29;0.77;;;0.60;;
58472;SDS011;44775;51.564;5.460;2023-07-20T10:53:55;1.17;;;0.70;;
58472;SDS011;44775;51.564;5.460;2023-07-20T10:56:23;2.55;;;0.60;;
58472;SDS011;44775;51.564;5.460;2023-07-20T10:58:55;1.80;;;0.90;;
58472;SDS011;44775;51.564;5.460;2023-07-20T11:01:27;2.35;;;0.80;;
58472;SDS011;44775;51.564;5.460;2023-07-20T11:03:56;0.80;;;0.70;;
58472;SDS011;44775;51.564;5.460;2023-07-20T11:11:30;1.30;;;0.70;;
58472;SDS011;44775;51.564;5.460;2023-07-20T11:13:57;2.13;;;0.90;;
58472;SDS011;44775;51.564;5.460;2023-07-20T11:16:39;1.08;;;0.60;;
58472;SDS011;44775;51.564;5.460;2023-07-20T11:19:05;1.55;;;1.00;;
58472;SDS011;44775;51.564;5.460;2023-07-20T11:21:41;1.35;;;0.70;;
58472;SDS011;44775;51.564;5.460;2023-07-20T11:24:07;1.80;;;1.00;;
58472;SDS011;44775;51.564;5.460;2023-07-20T11:26:41;2.50;;;0.90;;
58472;SDS011;44775;51.564;5.460;2023-07-20T11:29:17;2.42;;;1.00;;
58472;SDS011;44775;51.564;5.460;2023-07-20T11:31:44;2.38;;;0.80;;
58472;SDS011;44775;51.564;5.460;2023-07-20T11:34:13;2.80;;;0.90;;
58472;SDS011;44775;51.564;5.460;2023-07-20T11:36:44;1.10;;;0.73;;
58472;SDS011;44775;51.564;5.460;2023-07-20T11:39:11;1.15;;;0.77;;
58472;SDS011;44775;51.564;5.460;2023-07-20T11:41:38;2.00;;;0.80;;
58472;SDS011;44775;51.564;5.460;2023-07-20T11:44:04;1.30;;;0.80;;
58472;SDS011;44775;51.564;5.460;2023-07-20T11:48:58;1.98;;;0.70;;
58472;SDS011;44775;51.564;5.460;2023-07-20T11:51:25;1.85;;;0.70;;
58472;SDS011;44775;51.564;5.460;2023-07-20T11:53:52;1.30;;;0.77;;
58472;SDS011;44775;51.564;5.460;2023-07-20T11:56:17;1.58;;;0.60;;
58472;SDS011;44775;51.564;5.460;2023-07-20T11:58:43;2.25;;;0.90;;
58472;SDS011;44775;51.564;5.460;2023-07-20T12:01:11;0.97;;;0.67;;
58472;SDS011;44775;51.564;5.460;2023-07-20T12:03:37;3.75;;;1.00;;
58472;SDS011;44775;51.564;5.460;2023-07-20T12:06:06;3.17;;;1.10;;
58472;SDS011;44775;51.564;5.460;2023-07-20T12:08:33;1.00;;;0.70;;
58472;SDS011;44775;51.564;5.460;2023-07-20T12:10:58;1.52;;;1.00;;
58472;SDS011;44775;51.564;5.460;2023-07-20T12:13:34;1.30;;;0.93;;
58472;SDS011;44775;51.564;5.460;2023-07-20T12:16:06;2.90;;;1.10;;
58472;SDS011;44775;51.564;5.460;2023-07-20T12:18:36;1.08;;;0.80;;
58472;SDS011;44775;51.564;5.460;2023-07-20T12:21:02;1.38;;;1.10;;
58472;SDS011;44775;51.564;5.460;2023-07-20T12:23:34;2.40;;;0.98;;
58472;SDS011;44775;51.564;5.460;2023-07-20T12:26:05;1.30;;;0.98;;
58472;SDS011;44775;51.564;5.460;2023-07-20T12:28:32;2.03;;;1.15;;
58472;SDS011;44775;51.564;5.460;2023-07-20T12:30:57;1.55;;;0.80;;
58472;SDS011;44775;51.564;5.460;2023-07-20T12:33:22;2.33;;;0.88;;
58472;SDS011;44775;51.564;5.460;2023-07-20T12:35:48;1.50;;;0.80;;
58472;SDS011;44775;51.564;5.460;2023-07-20T12:38:14;0.85;;;0.80;;
58472;SDS011;44775;51.564;5.460;2023-07-20T12:40:41;2.28;;;0.90;;
58472;SDS011;44775;51.564;5.460;2023-07-20T12:43:06;1.85;;;0.77;;
58472;SDS011;44775;51.564;5.460;2023-07-20T12:45:32;1.15;;;0.90;;
58472;SDS011;44775;51.564;5.460;2023-07-20T12:47:58;2.05;;;0.70;;
58472;SDS011;44775;51.564;5.460;2023-07-20T12:50:23;1.77;;;0.90;;
58472;SDS011;44775;51.564;5.460;2023-07-20T12:52:48;1.65;;;0.80;;
58472;SDS011;44775;51.564;5.460;2023-07-20T12:55:13;2.63;;;0.93;;
58472;SDS011;44775;51.564;5.460;2023-07-20T12:57:40;5.18;;;0.90;;
58472;SDS011;44775;51.564;5.460;2023-07-20T13:00:06;1.73;;;0.80;;
58472;SDS011;44775;51.564;5.460;2023-07-20T13:02:34;2.88;;;1.25;;
58472;SDS011;44775;51.564;5.460;2023-07-20T13:05:00;1.83;;;1.20;;
58472;SDS011;44775;51.564;5.460;2023-07-20T13:07:35;1.98;;;1.15;;
58472;SDS011;44775;51.564;5.460;2023-07-20T13:10:02;2.28;;;1.10;;
58472;SDS011;44775;51.564;5.460;2023-07-20T13:12:29;1.48;;;1.20;;
58472;SDS011;44775;51.564;5.460;2023-07-20T13:14:57;2.70;;;0.95;;
58472;SDS011;44775;51.564;5.460;2023-07-20T13:17:25;2.15;;;1.10;;
58472;SDS011;44775;51.564;5.460;2023-07-20T13:19:51;8.52;;;1.20;;
58472;SDS011;44775;51.564;5.460;2023-07-20T13:22:16;1.80;;;0.93;;
58472;SDS011;44775;51.564;5.460;2023-07-20T13:24:44;2.42;;;1.30;;
58472;SDS011;44775;51.564;5.460;2023-07-20T13:27:10;2.03;;;1.13;;
58472;SDS011;44775;51.564;5.460;2023-07-20T13:29:35;3.50;;;1.50;;
58472;SDS011;44775;51.564;5.460;2023-07-20T13:32:01;1.30;;;0.70;;
58472;SDS011;44775;51.564;5.460;2023-07-20T13:34:28;2.00;;;0.82;;
58472;SDS011;44775;51.564;5.460;2023-07-20T13:36:54;1.75;;;1.05;;
58472;SDS011;44775;51.564;5.460;2023-07-20T13:39:19;3.72;;;1.00;;
58472;SDS011;44775;51.564;5.460;2023-07-20T13:41:44;2.58;;;1.30;;
58472;SDS011;44775;51.564;5.460;2023-07-20T13:44:10;5.53;;;1.13;;
58472;SDS011;44775;51.564;5.460;2023-07-20T13:46:35;2.67;;;0.95;;
58472;SDS011;44775;51.564;5.460;2023-07-20T13:49:01;1.42;;;0.70;;
58472;SDS011;44775;51.564;5.460;2023-07-20T13:51:26;2.63;;;0.75;;
58472;SDS011;44775;51.564;5.460;2023-07-20T13:53:51;0.95;;;0.70;;
58472;SDS011;44775;51.564;5.460;2023-07-20T13:56:16;2.45;;;1.00;;
58472;SDS011;44775;51.564;5.460;2023-07-20T13:58:42;1.23;;;0.82;;
58472;SDS011;44775;51.564;5.460;2023-07-20T14:01:07;1.85;;;1.00;;
58472;SDS011;44775;51.564;5.460;2023-07-20T14:03:32;2.20;;;0.90;;
58472;SDS011;44775;51.564;5.460;2023-07-20T14:05:58;3.22;;;0.82;;
58472;SDS011;44775;51.564;5.460;2023-07-20T14:08:23;2.10;;;0.90;;
58472;SDS011;44775;51.564;5.460;2023-07-20T14:10:48;1.25;;;0.75;;
58472;SDS011;44775;51.564;5.460;2023-07-20T14:13:14;1.95;;;1.10;;
58472;SDS011;44775;51.564;5.460;2023-07-20T14:15:39;1.85;;;0.95;;
58472;SDS011;44775;51.564;5.460;2023-07-20T14:18:05;2.33;;;1.10;;
58472;SDS011;44775;51.564;5.460;2023-07-20T14:20:30;2.85;;;1.50;;
58472;SDS011;44775;51.564;5.460;2023-07-20T14:22:56;1.70;;;1.40;;
58472;SDS011;44775;51.564;5.460;2023-07-20T14:25:21;2.63;;;1.27;;
58472;SDS011;44775;51.564;5.460;2023-07-20T14:27:46;1.45;;;0.85;;
58472;SDS011;44775;51.564;5.460;2023-07-20T14:30:14;1.67;;;1.03;;
58472;SDS011;44775;51.564;5.460;2023-07-20T14:32:40;1.75;;;1.60;;
58472;SDS011;44775;51.564;5.460;2023-07-20T14:35:06;2.42;;;1.70;;
58472;SDS011;44775;51.564;5.460;2023-07-20T14:37:32;1.33;;;1.00;;
58472;SDS011;44775;51.564;5.460;2023-07-20T14:39:57;1.80;;;1.20;;
58472;SDS011;44775;51.564;5.460;2023-07-20T14:42:22;4.35;;;1.00;;
58472;SDS011;44775;51.564;5.460;2023-07-20T14:44:48;1.20;;;1.00;;
58472;SDS011;44775;51.564;5.460;2023-07-20T14:47:13;1.92;;;1.45;;
58472;SDS011;44775;51.564;5.460;2023-07-20T14:49:38;2.63;;;1.38;;
58472;SDS011;44775;51.564;5.460;2023-07-20T14:52:04;2.00;;;1.20;;
58472;SDS011;44775;51.564;5.460;2023-07-20T14:54:29;1.70;;;1.20;;
58472;SDS011;44775;51.564;5.460;2023-07-20T14:56:55;3.67;;;1.35;;
58472;SDS011;44775;51.564;5.460;2023-07-20T14:59:21;1.35;;;1.00;;
58472;SDS011;44775;51.564;5.460;2023-07-20T15:01:46;3.30;;;1.55;;
58472;SDS011;44775;51.564;5.460;2023-07-20T15:04:12;1.33;;;1.20;;
58472;SDS011;44775;51.564;5.460;2023-07-20T15:06:38;2.22;;;1.20;;